createdAt,value
2016-03-06T00:00:19.948Z,89.35
2016-03-06T00:01:19.935Z,89.16
2016-03-06T00:02:19.938Z,89.35
2016-03-06T00:03:19.940Z,89.35
2016-03-06T00:04:19.959Z,89.16
2016-03-06T00:05:19.946Z,89.35
2016-03-06T00:06:19.933Z,89.44
2016-03-06T00:07:19.941Z,89.16
2016-03-06T00:08:19.959Z,89.35
2016-03-06T00:09:19.946Z,89.63
2016-03-06T00:10:19.931Z,89.06
2016-03-06T00:11:19.938Z,89.06
2016-03-06T00:12:19.940Z,89.06
2016-03-06T00:13:19.944Z,89.25
2016-03-06T00:14:19.946Z,89.25
2016-03-06T00:15:19.933Z,89.25
2016-03-06T00:16:19.935Z,89.25
2016-03-06T00:17:19.923Z,89.06
2016-03-06T00:18:19.925Z,89.25
2016-03-06T00:19:19.943Z,89.44
2016-03-06T00:20:19.931Z,89.44
2016-03-06T00:21:19.934Z,89.44
2016-03-06T00:22:19.936Z,89.44
2016-03-06T00:23:19.923Z,89.35
2016-03-06T00:24:19.925Z,89.25
2016-03-06T00:25:19.944Z,89.44
2016-03-06T00:26:19.931Z,89.06
2016-03-06T00:27:19.934Z,89.35
2016-03-06T00:28:19.920Z,88.87
2016-03-06T00:29:19.924Z,88.87
2016-03-06T00:30:19.926Z,89.25
2016-03-06T00:31:19.929Z,88.87
2016-03-06T00:32:19.931Z,89.16
2016-03-06T00:33:19.919Z,89.16
2016-03-06T00:34:19.921Z,89.35
2016-03-06T00:35:19.925Z,88.97
2016-03-06T00:36:19.927Z,88.97
2016-03-06T00:37:19.930Z,89.16
2016-03-06T00:38:19.916Z,88.87
2016-03-06T00:39:19.919Z,88.97
2016-03-06T00:40:19.922Z,89.16
2016-03-06T00:41:19.924Z,88.97
2016-03-06T00:42:19.927Z,89.06
2016-03-06T00:43:19.914Z,89.16
2016-03-06T00:44:19.916Z,88.97
2016-03-06T00:45:19.920Z,89.06
2016-03-06T00:46:19.922Z,89.25
2016-03-06T00:47:19.910Z,88.97
2016-03-06T00:48:19.912Z,89.16
2016-03-06T00:49:19.915Z,89.25
2016-03-06T00:50:19.917Z,89.06
2016-03-06T00:51:19.765Z,88.97
2016-03-06T00:52:19.751Z,88.4
2016-03-06T00:53:19.910Z,88.49
2016-03-06T00:54:19.928Z,88.97
2016-03-06T00:55:19.915Z,88.97
2016-03-06T00:56:19.917Z,88.87
2016-03-06T00:57:19.921Z,89.06
2016-03-06T00:58:19.908Z,89.06
2016-03-06T00:59:19.911Z,88.49
2016-03-06T01:00:19.913Z,88.4
2016-03-06T01:01:19.917Z,88.78
2016-03-06T01:02:19.919Z,88.68
2016-03-06T01:03:19.906Z,88.68
2016-03-06T01:04:19.908Z,88.49
2016-03-06T01:05:19.911Z,88.49
2016-03-06T01:06:19.913Z,88.68
2016-03-06T01:07:19.917Z,88.4
2016-03-06T01:08:19.903Z,88.49
2016-03-06T01:09:19.906Z,88.4
2016-03-06T01:10:19.898Z,88.4
2016-03-06T01:11:19.901Z,88.49
2016-03-06T01:12:19.904Z,88.4
2016-03-06T01:13:19.907Z,88.68
2016-03-06T01:14:19.909Z,88.49
2016-03-06T01:15:19.896Z,88.49
2016-03-06T01:16:19.898Z,89.16
2016-03-06T01:17:19.917Z,89.35
2016-03-06T01:18:19.904Z,89.35
2016-03-06T01:19:19.907Z,89.06
2016-03-06T01:20:19.909Z,88.68
2016-03-06T01:21:19.896Z,89.25
2016-03-06T01:22:19.899Z,88.87
2016-03-06T01:23:19.901Z,89.06
2016-03-06T01:24:19.889Z,89.16
2016-03-06T01:25:19.892Z,89.44
2016-03-06T01:26:19.894Z,88.4
2016-03-06T01:27:19.897Z,89.35
2016-03-06T01:28:19.900Z,89.16
2016-03-06T01:29:19.903Z,89.25
2016-03-06T01:30:19.889Z,89.35
2016-03-06T01:31:19.908Z,89.25
2016-03-06T01:32:19.894Z,88.68
2016-03-06T01:33:19.897Z,88.59
2016-03-06T01:34:19.884Z,89.25
2016-03-06T01:35:19.887Z,89.25
2016-03-06T01:36:19.905Z,89.25
2016-03-06T01:37:19.892Z,89.25
2016-03-06T01:38:19.894Z,89.35
2016-03-06T01:39:19.882Z,89.06
2016-03-06T01:40:19.900Z,88.97
2016-03-06T01:41:19.888Z,88.4
2016-03-06T01:42:19.890Z,88.49
2016-03-06T01:43:19.893Z,88.59
2016-03-06T01:44:19.880Z,88.87
2016-03-06T01:45:19.899Z,88.68
2016-03-06T01:46:19.885Z,88.68
2016-03-06T01:47:19.888Z,88.59
2016-03-06T01:48:19.906Z,88.4
2016-03-06T01:49:19.878Z,88.31
2016-03-06T01:50:19.724Z,88.59
2016-03-06T01:51:19.884Z,88.31
2016-03-06T01:52:19.901Z,88.4
2016-03-06T01:53:19.889Z,88.59
2016-03-06T01:54:19.875Z,88.12
2016-03-06T01:55:19.878Z,88.12
2016-03-06T01:56:19.881Z,88.21
2016-03-06T01:57:19.868Z,88.4
2016-03-06T01:58:19.886Z,88.4
2016-03-06T01:59:19.873Z,88.21
2016-03-06T02:00:19.876Z,88.12
2016-03-06T02:01:19.879Z,88.02
2016-03-06T02:02:19.881Z,87.84
2016-03-06T02:03:19.884Z,87.84
2016-03-06T02:04:19.871Z,88.12
2016-03-06T02:05:19.874Z,88.12
2016-03-06T02:06:20.392Z,88.02
2016-03-06T02:07:19.880Z,87.69
2016-03-06T02:08:19.866Z,87.55
2016-03-06T02:09:19.869Z,87.4
2016-03-06T02:10:19.871Z,87.4
2016-03-06T02:11:19.874Z,87.78
2016-03-06T02:12:19.861Z,87.5
2016-03-06T02:13:19.864Z,87.69
2016-03-06T02:14:19.866Z,87.59
2016-03-06T02:15:19.885Z,87.69
2016-03-06T02:16:19.872Z,87.88
2016-03-06T02:17:19.891Z,87.5
2016-03-06T02:18:19.877Z,87.69
2016-03-06T02:19:19.865Z,87.4
2016-03-06T02:20:19.898Z,87.5
2016-03-06T02:21:19.870Z,87.12
2016-03-06T02:22:19.873Z,87.21
2016-03-06T02:23:19.969Z,87.4
2016-03-06T02:24:19.862Z,87.4
2016-03-06T02:25:19.865Z,86.74
2016-03-06T02:26:19.867Z,87.12
2016-03-06T02:27:19.856Z,87.02
2016-03-06T02:28:19.873Z,86.83
2016-03-06T02:29:19.861Z,86.89
2016-03-06T02:30:19.863Z,86.55
2016-03-06T02:31:19.912Z,86.83
2016-03-06T02:32:19.869Z,86.74
2016-03-06T02:33:19.872Z,86.83
2016-03-06T02:34:19.858Z,87.02
2016-03-06T02:35:19.861Z,86.08
2016-03-06T02:36:19.847Z,86.36
2016-03-06T02:37:19.851Z,86.55
2016-03-06T02:38:19.869Z,86.65
2016-03-06T02:39:19.856Z,86.08
2016-03-06T02:40:19.858Z,86.04
2016-03-06T02:41:19.861Z,85.99
2016-03-06T02:42:19.848Z,85.94
2016-03-06T02:43:19.851Z,86.22
2016-03-06T02:44:19.885Z,85.8
2016-03-06T02:45:19.857Z,85.85
2016-03-06T02:46:19.860Z,86.04
2016-03-06T02:47:19.846Z,85.85
2016-03-06T02:48:19.849Z,85.57
2016-03-06T02:49:19.852Z,85.57
2016-03-06T02:50:19.838Z,85.75
2016-03-06T02:51:19.841Z,85.85
2016-03-06T02:52:19.843Z,85.57
2016-03-06T02:53:19.846Z,85.75
2016-03-06T02:54:19.849Z,85.57
2016-03-06T02:55:19.852Z,85.75
2016-03-06T02:56:19.839Z,85.66
2016-03-06T02:57:19.857Z,85.85
2016-03-06T02:58:19.875Z,85.66
2016-03-06T02:59:19.847Z,85.09
2016-03-06T03:00:19.850Z,85.47
2016-03-06T03:01:19.837Z,85.38
2016-03-06T03:02:19.839Z,85.38
2016-03-06T03:03:19.843Z,85.57
2016-03-06T03:04:19.845Z,85.38
2016-03-06T03:05:19.833Z,85.57
2016-03-06T03:06:19.850Z,85.38
2016-03-06T03:07:19.838Z,85.38
2016-03-06T03:08:19.840Z,85.47
2016-03-06T03:09:19.844Z,85.57
2016-03-06T03:10:19.846Z,85.38
2016-03-06T03:11:19.833Z,85.57
2016-03-06T03:12:19.835Z,85.57
2016-03-06T03:13:19.854Z,85.47
2016-03-06T03:14:19.824Z,85.66
2016-03-06T03:15:19.828Z,85.66
2016-03-06T03:16:19.846Z,85.94
2016-03-06T03:17:19.833Z,85.09
2016-03-06T03:18:19.835Z,85.09
2016-03-06T03:19:19.839Z,85.28
2016-03-06T03:20:19.826Z,85.28
2016-03-06T03:21:19.844Z,84.9
2016-03-06T03:22:19.831Z,84.81
2016-03-06T03:23:19.834Z,84.71
2016-03-06T03:24:19.836Z,84.81
2016-03-06T03:25:19.824Z,84.61
2016-03-06T03:26:19.826Z,84.81
2016-03-06T03:27:19.829Z,84.71
2016-03-06T03:28:19.831Z,85
2016-03-06T03:29:19.834Z,84.81
2016-03-06T03:30:19.820Z,84.42
2016-03-06T03:31:19.824Z,84.52
2016-03-06T03:32:19.826Z,84.52
2016-03-06T03:33:19.829Z,85.09
2016-03-06T03:34:19.831Z,84.14
2016-03-06T03:35:19.820Z,84.33
2016-03-06T03:36:19.822Z,84.42
2016-03-06T03:37:19.825Z,84.14
2016-03-06T03:38:19.827Z,84.33
2016-03-06T03:39:19.812Z,84.05
2016-03-06T03:40:19.801Z,84.05
2016-03-06T03:41:19.788Z,84.23
2016-03-06T03:42:19.775Z,84.33
2016-03-06T03:43:19.764Z,83.48
2016-03-06T03:44:19.737Z,83.58
2016-03-06T03:45:19.735Z,83.76
2016-03-06T03:46:19.732Z,83.67
2016-03-06T03:47:19.729Z,83.58
2016-03-06T03:48:19.726Z,83.29
2016-03-06T03:49:19.708Z,83.48
2016-03-06T03:50:19.709Z,83.67
2016-03-06T03:51:19.709Z,83.39
2016-03-06T03:52:19.710Z,83.29
2016-03-06T03:53:19.710Z,83.58
2016-03-06T03:54:19.695Z,83.1
2016-03-06T03:55:19.698Z,82.91
2016-03-06T03:56:19.700Z,82.91
2016-03-06T03:57:19.703Z,82.53
2016-03-06T03:58:19.706Z,82.63
2016-03-06T03:59:19.693Z,82.82
2016-03-06T04:00:19.695Z,82.44
2016-03-06T04:01:19.697Z,82.34
2016-03-06T04:02:19.700Z,82.53
2016-03-06T04:03:19.702Z,82.44
2016-03-06T04:04:19.688Z,82.06
2016-03-06T04:05:19.706Z,82.06
2016-03-06T04:06:19.694Z,82.15
2016-03-06T04:07:19.696Z,82.06
2016-03-06T04:08:19.682Z,82.25
2016-03-06T04:09:19.686Z,81.68
2016-03-06T04:10:19.688Z,81.59
2016-03-06T04:11:19.691Z,81.3
2016-03-06T04:12:19.679Z,81.3
2016-03-06T04:13:19.681Z,81.59
2016-03-06T04:14:19.699Z,81.68
2016-03-06T04:15:19.686Z,81.12
2016-03-06T04:16:19.673Z,81.3
2016-03-06T04:17:19.692Z,80.93
2016-03-06T04:18:19.679Z,80.93
2016-03-06T04:19:19.681Z,81.12
2016-03-06T04:20:19.684Z,81.12
2016-03-06T04:21:19.672Z,80.93
2016-03-06T04:22:19.689Z,80.45
2016-03-06T04:23:19.677Z,80.64
2016-03-06T04:24:19.680Z,80.45
2016-03-06T04:25:19.682Z,80.74
2016-03-06T04:26:19.669Z,80.55
2016-03-06T04:27:19.688Z,80.45
2016-03-06T04:28:19.691Z,80.45
2016-03-06T04:29:19.677Z,80.36
2016-03-06T04:30:19.664Z,80.26
2016-03-06T04:31:19.666Z,80.64
2016-03-06T04:32:19.686Z,79.79
2016-03-06T04:33:19.672Z,80.17
2016-03-06T04:34:19.674Z,80.26
2016-03-06T04:35:19.663Z,80.07
2016-03-06T04:36:19.665Z,79.98
2016-03-06T04:37:19.668Z,80.36
2016-03-06T04:38:19.670Z,80.07
2016-03-06T04:39:19.673Z,79.98
2016-03-06T04:40:19.660Z,80.07
2016-03-06T04:41:19.662Z,79.88
2016-03-06T04:42:19.665Z,79.88
2016-03-06T04:43:19.668Z,80.26
2016-03-06T04:44:19.655Z,79.88
2016-03-06T04:45:19.657Z,80.17
2016-03-06T04:46:19.660Z,79.98
2016-03-06T04:47:19.663Z,79.88
2016-03-06T04:48:19.665Z,79.98
2016-03-06T04:49:19.653Z,79.98
2016-03-06T04:50:19.656Z,79.98
2016-03-06T04:51:19.658Z,79.98
2016-03-06T04:52:19.661Z,80.07
2016-03-06T04:53:19.664Z,79.98
2016-03-06T04:54:19.682Z,79.98
2016-03-06T04:55:19.654Z,80.26
2016-03-06T04:56:19.656Z,80.07
2016-03-06T04:57:19.647Z,80.26
2016-03-06T04:58:19.650Z,80.26
2016-03-06T04:59:19.653Z,79.98
2016-03-06T05:00:19.656Z,79.88
2016-03-06T05:01:19.658Z,79.88
2016-03-06T05:02:19.646Z,79.98
2016-03-06T05:03:19.648Z,79.98
2016-03-06T05:04:19.652Z,80.07
2016-03-06T05:05:19.654Z,79.69
2016-03-06T05:06:19.641Z,79.69
2016-03-06T05:07:19.643Z,79.5
2016-03-06T05:08:19.662Z,79.6
2016-03-06T05:09:19.665Z,79.6
2016-03-06T05:10:19.636Z,79.79
2016-03-06T05:11:19.639Z,79.69
2016-03-06T05:12:19.642Z,79.5
2016-03-06T05:13:19.644Z,79.98
2016-03-06T05:14:19.631Z,79.32
2016-03-06T05:15:19.634Z,79.98
2016-03-06T05:16:19.653Z,79.32
2016-03-06T05:17:19.639Z,79.98
2016-03-06T05:18:19.642Z,79.98
2016-03-06T05:19:19.645Z,79.22
2016-03-06T05:20:19.647Z,79.13
2016-03-06T05:21:19.634Z,79.13
2016-03-06T05:22:19.637Z,79.13
2016-03-06T05:23:19.639Z,79.6
2016-03-06T05:24:19.642Z,79.22
2016-03-06T05:25:19.645Z,79.69
2016-03-06T05:26:19.633Z,79.5
2016-03-06T05:27:19.636Z,79.6
2016-03-06T05:28:19.638Z,79.6
2016-03-06T05:29:19.624Z,79.6
2016-03-06T05:30:19.628Z,79.22
2016-03-06T05:31:19.630Z,79.13
2016-03-06T05:32:19.632Z,79.13
2016-03-06T05:33:19.635Z,79.41
2016-03-06T05:34:19.638Z,79.5
2016-03-06T05:35:19.625Z,79.41
2016-03-06T05:36:19.627Z,79.5
2016-03-06T05:37:19.630Z,79.5
2016-03-06T05:38:19.618Z,79.5
2016-03-06T05:39:19.621Z,79.5
2016-03-06T05:40:19.623Z,79.6
2016-03-06T05:41:19.625Z,79.41
2016-03-06T05:42:19.629Z,79.32
2016-03-06T05:43:19.615Z,79.69
2016-03-06T05:44:19.618Z,79.5
2016-03-06T05:45:19.621Z,79.6
2016-03-06T05:46:19.608Z,79.03
2016-03-06T05:47:19.611Z,79.5
2016-03-06T05:48:19.614Z,79.79
2016-03-06T05:49:19.616Z,79.69
2016-03-06T05:50:19.619Z,79.5
2016-03-06T05:51:19.622Z,79.69
2016-03-06T05:52:19.608Z,79.98
2016-03-06T05:53:19.611Z,79.98
2016-03-06T05:54:19.598Z,80.17
2016-03-06T05:55:19.632Z,79.88
2016-03-06T05:56:19.619Z,79.88
2016-03-06T05:57:19.606Z,80.26
2016-03-06T05:58:19.624Z,80.07
2016-03-06T05:59:19.611Z,80.26
2016-03-06T06:00:19.614Z,80.36
2016-03-06T06:01:19.601Z,79.98
2016-03-06T06:02:19.605Z,80.07
2016-03-06T06:03:19.622Z,80.17
2016-03-06T06:04:19.609Z,79.98
2016-03-06T06:05:19.597Z,80.07
2016-03-06T06:06:19.599Z,79.88
2016-03-06T06:07:19.601Z,79.88
2016-03-06T06:08:19.605Z,80.07
2016-03-06T06:09:19.607Z,80.26
2016-03-06T06:10:19.594Z,80.36
2016-03-06T06:11:19.597Z,80.17
2016-03-06T06:12:19.599Z,80.07
2016-03-06T06:13:19.587Z,80.26
2016-03-06T06:14:19.605Z,79.79
2016-03-06T06:15:19.592Z,79.69
2016-03-06T06:16:19.594Z,80.17
2016-03-06T06:17:19.613Z,80.17
2016-03-06T06:18:19.584Z,79.98
2016-03-06T06:19:19.587Z,80.07
2016-03-06T06:20:19.589Z,80.07
2016-03-06T06:21:19.608Z,80.07
2016-03-06T06:22:19.595Z,79.69
2016-03-06T06:23:19.598Z,79.69
2016-03-06T06:24:19.600Z,79.5
2016-03-06T06:25:19.588Z,79.79
2016-03-06T06:26:19.591Z,79.79
2016-03-06T06:27:19.577Z,79.88
2016-03-06T06:28:19.581Z,79.88
2016-03-06T06:29:19.583Z,79.98
2016-03-06T06:30:19.585Z,79.88
2016-03-06T06:31:19.588Z,79.69
2016-03-06T06:32:19.575Z,79.98
2016-03-06T06:33:19.578Z,79.79
2016-03-06T06:34:19.580Z,79.69
2016-03-06T06:35:19.427Z,79.79
2016-03-06T06:36:19.585Z,79.6
2016-03-06T06:37:19.589Z,79.6
2016-03-06T06:38:19.576Z,79.69
2016-03-06T06:39:19.593Z,79.79
2016-03-06T06:40:19.582Z,79.88
2016-03-06T06:41:19.584Z,79.88
2016-03-06T06:42:19.415Z,79.88
2016-03-06T06:43:19.573Z,79.79
2016-03-06T06:44:19.576Z,79.79
2016-03-06T06:45:19.579Z,79.6
2016-03-06T06:46:19.582Z,79.6
2016-03-06T06:47:19.568Z,79.79
2016-03-06T06:48:19.571Z,79.79
2016-03-06T06:49:19.574Z,79.6
2016-03-06T06:50:19.577Z,79.32
2016-03-06T06:51:19.579Z,79.5
2016-03-06T06:52:19.566Z,79.41
2016-03-06T06:53:19.569Z,79.69
2016-03-06T06:54:19.572Z,80.07
2016-03-06T06:55:19.574Z,80.07
2016-03-06T06:56:19.562Z,79.98
2016-03-06T06:57:19.564Z,80.07
2016-03-06T06:58:19.583Z,79.98
2016-03-06T06:59:19.569Z,79.88
2016-03-06T07:00:19.557Z,79.98
2016-03-06T07:01:19.560Z,79.88
2016-03-06T07:02:19.578Z,79.98
2016-03-06T07:03:19.565Z,80.07
2016-03-06T07:04:19.568Z,80.17
2016-03-06T07:05:19.602Z,80.17
2016-03-06T07:06:19.563Z,80.17
2016-03-06T07:07:19.565Z,79.98
2016-03-06T07:08:19.552Z,80.17
2016-03-06T07:09:19.554Z,80.17
2016-03-06T07:10:19.557Z,80.17
2016-03-06T07:11:19.560Z,80.07
2016-03-06T07:12:19.548Z,80.17
2016-03-06T07:13:19.550Z,80.07
2016-03-06T07:14:19.553Z,80.07
2016-03-06T07:15:19.556Z,80.36
2016-03-06T07:16:19.558Z,80.26
2016-03-06T07:17:19.545Z,80.07
2016-03-06T07:18:19.548Z,79.88
2016-03-06T07:19:19.581Z,80.26
2016-03-06T07:20:19.553Z,80.07
2016-03-06T07:21:19.555Z,80.17
2016-03-06T07:22:19.542Z,79.98
2016-03-06T07:23:19.545Z,79.64
2016-03-06T07:24:19.548Z,79.74
2016-03-06T07:25:19.535Z,79.17
2016-03-06T07:26:19.553Z,79.64
2016-03-06T07:27:19.541Z,79.17
2016-03-06T07:28:19.544Z,79.17
2016-03-06T07:29:19.561Z,78.98
2016-03-06T07:30:19.549Z,79.17
2016-03-06T07:31:19.552Z,78.79
2016-03-06T07:32:19.570Z,78.98
2016-03-06T07:33:19.541Z,78.69
2016-03-06T07:34:19.544Z,78.88
2016-03-06T07:35:19.531Z,78.98
2016-03-06T07:36:19.534Z,78.5
2016-03-06T07:37:19.537Z,78.31
2016-03-06T07:38:19.539Z,78.31
2016-03-06T07:39:19.542Z,78.41
2016-03-06T07:40:19.529Z,78.41
2016-03-06T07:41:19.531Z,78.31
2016-03-06T07:42:19.534Z,78.64
2016-03-06T07:43:19.537Z,77.97
2016-03-06T07:44:19.524Z,78.07
2016-03-06T07:45:19.542Z,77.4
2016-03-06T07:46:19.545Z,77.59
2016-03-06T07:47:19.548Z,77.22
2016-03-06T07:48:19.534Z,77.5
2016-03-06T07:49:19.522Z,76.93
2016-03-06T07:50:19.556Z,77.16
2016-03-06T07:51:19.527Z,76.78
2016-03-06T07:52:19.530Z,75.93
2016-03-06T07:53:19.516Z,75.55
2016-03-06T07:54:19.519Z,75.07
2016-03-06T07:55:19.522Z,74.54
2016-03-06T07:56:19.524Z,74.45
2016-03-06T07:57:19.527Z,74.16
2016-03-06T07:58:19.530Z,73.41
2016-03-06T07:59:19.517Z,73.22
2016-03-06T08:00:19.520Z,72.55
2016-03-06T08:01:19.538Z,71.89
2016-03-06T08:02:19.525Z,71.51
2016-03-06T08:03:19.528Z,71.41
2016-03-06T08:04:19.530Z,71.32
2016-03-06T08:05:19.518Z,71.6
2016-03-06T08:06:19.543Z,70.94
2016-03-06T08:07:19.516Z,71.03
2016-03-06T08:08:19.534Z,71.13
2016-03-06T08:09:19.521Z,71.13
2016-03-06T08:10:19.539Z,71.09
2016-03-06T08:11:19.526Z,71.57
2016-03-06T08:12:19.528Z,71.38
2016-03-06T08:13:19.515Z,71.66
2016-03-06T08:14:19.534Z,71.76
2016-03-06T08:15:19.521Z,71.66
2016-03-06T08:16:19.523Z,71.57
2016-03-06T08:17:19.526Z,71.85
2016-03-06T08:18:19.513Z,71.76
2016-03-06T08:19:19.517Z,71.57
2016-03-06T08:20:19.519Z,71.66
2016-03-06T08:21:19.522Z,71.57
2016-03-06T08:22:19.524Z,71.95
2016-03-06T08:23:19.512Z,72.04
2016-03-06T08:24:19.530Z,71.95
2016-03-06T08:25:19.532Z,71.76
2016-03-06T08:26:19.536Z,71.51
2016-03-06T08:27:19.522Z,72.08
2016-03-06T08:28:19.525Z,71.22
2016-03-06T08:29:19.511Z,71.41
2016-03-06T08:30:19.530Z,71.6
2016-03-06T08:31:19.516Z,71.22
2016-03-06T08:32:19.519Z,71.03
2016-03-06T08:33:19.522Z,70.94
2016-03-06T08:34:19.524Z,70.94
2016-03-06T08:35:19.527Z,70.84
2016-03-06T08:36:19.515Z,70.28
2016-03-06T08:37:19.518Z,70.37
2016-03-06T08:38:19.520Z,70.18
2016-03-06T08:39:19.524Z,70.37
2016-03-06T08:40:19.526Z,70.47
2016-03-06T08:41:19.543Z,69.93
2016-03-06T08:42:19.532Z,69.93
2016-03-06T08:43:19.518Z,69.65
2016-03-06T08:44:19.521Z,69.27
2016-03-06T08:45:19.524Z,68.7
2016-03-06T08:46:19.526Z,68.89
2016-03-06T08:47:19.514Z,68.32
2016-03-06T08:48:19.516Z,68.23
2016-03-06T08:49:19.519Z,68.13
2016-03-06T08:50:19.522Z,67.56
2016-03-06T08:51:19.524Z,67.37
2016-03-06T08:52:19.528Z,67.12
2016-03-06T08:53:19.530Z,67.12
2016-03-06T08:54:19.517Z,66.89
2016-03-06T08:55:19.519Z,66.55
2016-03-06T08:56:19.522Z,66.55
2016-03-06T08:57:19.525Z,66.08
2016-03-06T08:58:19.511Z,65.88
2016-03-06T08:59:19.514Z,65.5
2016-03-06T09:00:19.517Z,64.78
2016-03-06T09:01:19.520Z,65.16
2016-03-06T09:02:19.522Z,64.78
2016-03-06T09:03:19.510Z,64.11
2016-03-06T09:04:19.528Z,63.64
2016-03-06T09:05:19.530Z,63.29
2016-03-06T09:06:19.517Z,62.53
2016-03-06T09:07:19.536Z,61.61
2016-03-06T09:08:19.523Z,60.41
2016-03-06T09:09:19.526Z,58.79
2016-03-06T09:10:19.529Z,57.84
2016-03-06T09:11:19.531Z,57.1
2016-03-06T09:12:19.518Z,56.34
2016-03-06T09:13:19.537Z,55.1
2016-03-06T09:14:19.570Z,54.53
2016-03-06T09:15:19.557Z,54.15
2016-03-06T09:16:19.529Z,53.23
2016-03-06T09:17:19.531Z,52.84
2016-03-06T09:18:19.535Z,52.37
2016-03-06T09:19:19.537Z,51.92
2016-03-06T09:20:19.539Z,50.23
2016-03-06T09:21:19.527Z,48.28
2016-03-06T09:22:19.545Z,47.34
2016-03-06T09:23:19.547Z,44.91
2016-03-06T09:24:19.534Z,43.5
2016-03-06T09:25:19.569Z,41.7
2016-03-06T09:26:19.540Z,40.26
2016-03-06T09:27:19.542Z,40.26
2016-03-06T09:28:19.545Z,39.77
2016-03-06T09:29:19.547Z,39.29
2016-03-06T09:30:19.550Z,39.2
2016-03-06T09:31:19.553Z,37.85
2016-03-06T09:32:19.541Z,38.32
2016-03-06T09:33:19.544Z,37.74
2016-03-06T09:34:19.546Z,38.1
2016-03-06T09:35:19.549Z,37.65
2016-03-06T09:36:19.552Z,37.46
2016-03-06T09:37:19.554Z,36.68
2016-03-06T09:38:19.557Z,36.29
2016-03-06T09:39:19.544Z,36.77
2016-03-06T09:40:19.562Z,36.02
2016-03-06T09:41:19.549Z,34.51
2016-03-06T09:42:19.568Z,32.92
2016-03-06T09:43:19.571Z,32.17
2016-03-06T09:44:19.573Z,30.55
2016-03-06T09:45:19.575Z,29.9
2016-03-06T09:46:19.563Z,29.22
2016-03-06T09:47:19.565Z,29.5
2016-03-06T09:48:19.567Z,30.18
2016-03-06T09:49:19.571Z,30.27
2016-03-06T09:50:19.573Z,31.02
2016-03-06T09:51:19.576Z,30.93
2016-03-06T09:52:19.579Z,31.01
2016-03-06T09:53:19.581Z,31.37
2016-03-06T09:54:19.584Z,32.04
2016-03-06T09:55:19.587Z,32.89
2016-03-06T09:56:19.589Z,33.06
2016-03-06T09:57:19.592Z,33.42
2016-03-06T09:58:19.595Z,33.91
2016-03-06T09:59:19.598Z,34.17
2016-03-06T10:00:19.600Z,34.94
2016-03-06T10:01:19.602Z,35.13
2016-03-06T10:02:19.606Z,35.7
2016-03-06T10:03:19.593Z,35.68
2016-03-06T10:04:19.595Z,35.97
2016-03-06T10:05:19.599Z,36.73
2016-03-06T10:06:19.601Z,36.83
2016-03-06T10:07:19.604Z,38.07
2016-03-06T10:08:19.607Z,38.35
2016-03-06T10:09:19.609Z,39.22
2016-03-06T10:10:19.612Z,38.93
2016-03-06T10:11:19.630Z,39.1
2016-03-06T10:12:19.617Z,38.91
2016-03-06T10:13:19.620Z,38.53
2016-03-06T10:14:19.623Z,38.34
2016-03-06T10:15:19.625Z,38.91
2016-03-06T10:16:19.629Z,38.81
2016-03-06T10:17:19.631Z,38.98
2016-03-06T10:18:19.633Z,39.27
2016-03-06T10:19:19.636Z,38.89
2016-03-06T10:20:19.639Z,39
2016-03-06T10:21:19.641Z,38.34
2016-03-06T10:22:19.644Z,37.95
2016-03-06T10:23:19.647Z,37.68
2016-03-06T10:24:19.650Z,37.76
2016-03-06T10:25:19.652Z,37.21
2016-03-06T10:26:19.655Z,36.35
2016-03-06T10:27:19.658Z,37.1
2016-03-06T10:28:19.660Z,37.1
2016-03-06T10:29:19.663Z,38.24
2016-03-06T10:30:19.666Z,39.19
2016-03-06T10:31:19.668Z,39.58
2016-03-06T10:32:19.672Z,39.19
2016-03-06T10:33:19.674Z,39.19
2016-03-06T10:34:19.676Z,39.39
2016-03-06T10:35:19.680Z,39.48
2016-03-06T10:36:19.682Z,39.75
2016-03-06T10:37:19.684Z,39.65
2016-03-06T10:38:19.687Z,39.84
2016-03-06T10:39:19.690Z,39.36
2016-03-06T10:40:19.693Z,39.39
2016-03-06T10:41:19.695Z,39.58
2016-03-06T10:42:19.698Z,38.05
2016-03-06T10:43:19.701Z,37.38
2016-03-06T10:44:19.718Z,36.81
2016-03-06T10:45:19.706Z,36.62
2016-03-06T10:46:19.709Z,37.66
2016-03-06T10:47:19.711Z,38.05
2016-03-06T10:48:19.715Z,37.86
2016-03-06T10:49:19.748Z,37.76
2016-03-06T10:50:19.734Z,37.57
2016-03-06T10:51:19.722Z,36.9
2016-03-06T10:52:19.724Z,36.07
2016-03-06T10:53:19.728Z,35.49
2016-03-06T10:54:19.730Z,35.11
2016-03-06T10:55:19.733Z,34.63
2016-03-06T10:56:19.736Z,35
2016-03-06T10:57:19.738Z,35.28
2016-03-06T10:58:19.741Z,35.47
2016-03-06T10:59:19.744Z,35.47
2016-03-06T11:00:19.761Z,35.47
2016-03-06T11:01:19.780Z,35.47
2016-03-06T11:02:19.767Z,36.24
2016-03-06T11:03:19.755Z,36.71
2016-03-06T11:04:19.757Z,36.6
2016-03-06T11:05:19.775Z,36.12
2016-03-06T11:06:19.763Z,36.88
2016-03-06T11:07:19.780Z,36.88
2016-03-06T11:08:19.782Z,37.54
2016-03-06T11:09:19.786Z,39.06
2016-03-06T11:10:19.788Z,39.14
2016-03-06T11:11:19.791Z,40.35
2016-03-06T11:12:19.793Z,40.35
2016-03-06T11:13:19.796Z,40.92
2016-03-06T11:14:19.799Z,41.28
2016-03-06T11:15:19.802Z,41.85
2016-03-06T11:16:19.789Z,42.43
2016-03-06T11:17:19.807Z,42.6
2016-03-06T11:18:19.810Z,43.07
2016-03-06T11:19:19.798Z,43.83
2016-03-06T11:20:19.815Z,44.31
2016-03-06T11:21:19.818Z,44.67
2016-03-06T11:22:19.806Z,44.85
2016-03-06T11:23:19.823Z,45.14
2016-03-06T11:24:20.373Z,45.71
2016-03-06T11:25:19.828Z,45.71
2016-03-06T11:26:19.832Z,45.9
2016-03-06T11:27:19.819Z,46
2016-03-06T11:28:19.821Z,46.28
2016-03-06T11:29:19.840Z,46.85
2016-03-06T11:30:19.842Z,46.3
2016-03-06T11:31:19.844Z,46.01
2016-03-06T11:32:19.848Z,46.01
2016-03-06T11:33:19.850Z,45.83
2016-03-06T11:34:19.853Z,45.35
2016-03-06T11:35:19.856Z,45.28
2016-03-06T11:36:19.858Z,45.09
2016-03-06T11:37:19.846Z,44.23
2016-03-06T11:38:19.853Z,44.23
2016-03-06T11:39:19.857Z,44.13
2016-03-06T11:40:19.891Z,43.97
2016-03-06T11:41:19.861Z,43.59
2016-03-06T11:42:19.865Z,43.49
2016-03-06T11:43:19.867Z,43.3
2016-03-06T11:44:19.885Z,42.64
2016-03-06T11:45:19.873Z,42.07
2016-03-06T11:46:19.875Z,41.59
2016-03-06T11:47:19.894Z,41.78
2016-03-06T11:48:19.881Z,42.16
2016-03-06T11:49:19.883Z,42.35
2016-03-06T11:50:19.886Z,42.64
2016-03-06T11:51:19.873Z,43.21
2016-03-06T11:52:19.891Z,43.66
2016-03-06T11:53:19.879Z,43.76
2016-03-06T11:54:19.897Z,44.33
2016-03-06T11:55:19.884Z,44.42
2016-03-06T11:56:19.887Z,45.47
2016-03-06T11:57:19.905Z,46.11
2016-03-06T11:58:19.892Z,46.2
2016-03-06T11:59:19.910Z,47.06
2016-03-06T12:00:19.898Z,46.78
2016-03-06T12:01:19.900Z,47.54
2016-03-06T12:02:19.919Z,47.54
2016-03-06T12:03:19.906Z,48.01
2016-03-06T12:04:19.909Z,48.46
2016-03-06T12:05:19.911Z,48.75
2016-03-06T12:06:19.913Z,49.51
2016-03-06T12:07:19.917Z,49.13
2016-03-06T12:08:19.919Z,49.79
2016-03-06T12:09:19.906Z,50.18
2016-03-06T12:10:19.925Z,50.93
2016-03-06T12:11:19.942Z,51.12
2016-03-06T12:12:19.930Z,51.12
2016-03-06T12:13:19.933Z,50.96
2016-03-06T12:14:19.935Z,50.1
2016-03-06T12:15:19.922Z,49.85
2016-03-06T12:16:19.941Z,49.08
2016-03-06T12:17:19.927Z,48.16
2016-03-06T12:18:19.930Z,47.2
2016-03-06T12:19:20.010Z,45.89
2016-03-06T12:20:19.951Z,45.14
2016-03-06T12:21:19.938Z,44.49
2016-03-06T12:22:19.941Z,44.2
2016-03-06T12:23:19.943Z,43.56
2016-03-06T12:24:19.947Z,43.08
2016-03-06T12:25:19.949Z,43.08
2016-03-06T12:26:19.967Z,43.08
2016-03-06T12:27:19.955Z,43.16
2016-03-06T12:28:19.957Z,43.54
2016-03-06T12:29:19.959Z,43.32
2016-03-06T12:30:19.962Z,44.26
2016-03-06T12:31:19.966Z,44.71
2016-03-06T12:32:19.984Z,46.14
2016-03-06T12:33:19.970Z,46.88
2016-03-06T12:34:19.973Z,47.92
2016-03-06T12:35:19.976Z,48.94
2016-03-06T12:36:19.994Z,49.51
2016-03-06T12:37:19.981Z,50.08
2016-03-06T12:38:19.984Z,50.93
2016-03-06T12:39:19.987Z,50.68
2016-03-06T12:40:19.989Z,51.25
2016-03-06T12:41:19.977Z,51.62
2016-03-06T12:42:19.995Z,51.08
2016-03-06T12:43:19.982Z,50.23
2016-03-06T12:44:19.985Z,49.56
2016-03-06T12:45:20.001Z,50.32
2016-03-06T12:46:19.976Z,50.6
2016-03-06T12:47:19.981Z,50.42
2016-03-06T12:48:19.956Z,50.89
2016-03-06T12:49:19.946Z,51.37
2016-03-06T12:50:19.952Z,51.27
2016-03-06T12:51:19.935Z,51.06
2016-03-06T12:52:19.949Z,50.68
2016-03-06T12:53:19.932Z,51.27
2016-03-06T12:54:19.931Z,51.08
2016-03-06T12:55:19.945Z,51.25